Time;durP1;ratioP1;P1;durP2;ratioP2;P2;SDS_P1;SDS_P2;PMS_P1;PMS_P2;Temp;Humidity;BMP_temperature;BMP_pressure;BME280_temperature;BME280_humidity;BME280_pressure;Samples;Min_cycle;Max_cycle;Signal;HPM_P1;HPM_P2
2022/06/24 00:02:00;;;;;;;5.57;4.10;;;21.60;66.10;;;;;;5010261;28;20180;-63
2022/06/24 00:04:28;;;;;;;5.07;3.95;;;21.60;66.10;;;;;;5020772;28;20214;-63
2022/06/24 00:06:56;;;;;;;9.95;4.75;;;21.60;66.70;;;;;;5013573;28;20213;-63
2022/06/24 00:09:25;;;;;;;4.57;3.72;;;21.50;66.90;;;;;;5025088;28;20216;-63
2022/06/24 00:12:07;;;;;;;5.80;3.67;;;21.50;67.20;;;;;;5002846;28;20678;-61
2022/06/24 00:14:34;;;;;;;9.48;5.22;;;21.40;67.20;;;;;;5025027;28;20200;-62
2022/06/24 00:17:04;;;;;;;5.55;3.85;;;21.40;67.70;;;;;;5026641;28;20195;-63
2022/06/24 00:19:33;;;;;;;4.47;3.70;;;21.40;67.60;;;;;;5014670;28;20208;-63
2022/06/24 00:22:16;;;;;;;9.90;4.68;;;21.40;67.70;;;;;;5017951;28;20180;-62
2022/06/24 00:24:41;;;;;;;8.82;4.95;;;21.40;67.90;;;;;;4998996;28;20745;-62
2022/06/24 00:27:18;;;;;;;7.68;5.18;;;21.40;67.90;;;;;;5016862;28;20195;-61
2022/06/24 00:29:44;;;;;;;8.63;4.57;;;21.40;68.30;;;;;;5024084;28;20209;-63
2022/06/24 00:32:09;;;;;;;5.35;4.25;;;21.40;68.30;;;;;;5013276;28;20188;-64
2022/06/24 00:34:37;;;;;;;6.00;5.15;;;21.40;68.60;;;;;;5023156;28;20207;-62
2022/06/24 00:37:22;;;;;;;7.17;4.90;;;21.30;67.70;;;;;;5012447;28;20218;-62
2022/06/24 00:39:48;;;;;;;14.65;9.45;;;21.30;68.10;;;;;;5023868;28;20204;-76
2022/06/24 00:42:15;;;;;;;7.47;4.70;;;21.40;69.40;;;;;;5013992;28;20180;-77
2022/06/24 00:44:48;;;;;;;6.70;4.43;;;21.30;68.40;;;;;;5017086;28;20733;-61
2022/06/24 00:47:15;;;;;;;8.38;5.35;;;21.30;68.60;;;;;;5016226;28;20607;-63
2022/06/24 00:49:43;;;;;;;5.60;4.50;;;21.30;69.50;;;;;;5022170;28;20712;-63
2022/06/24 00:52:10;;;;;;;6.60;4.90;;;21.30;68.50;;;;;;5010901;28;20192;-62
2022/06/24 00:54:36;;;;;;;7.90;5.93;;;21.30;69.60;;;;;;5017046;28;20243;-62
2022/06/24 00:57:02;;;;;;;6.20;4.70;;;21.30;69.50;;;;;;5006254;28;20184;-61
2022/06/24 00:59:32;;;;;;;7.88;5.25;;;21.30;70.40;;;;;;5024083;28;20230;-61
2022/06/24 01:01:58;;;;;;;4.77;3.90;;;21.30;69.00;;;;;;5016734;28;20195;-63
2022/06/24 01:04:31;;;;;;;6.37;4.87;;;21.20;69.70;;;;;;5021463;28;20232;-64
2022/06/24 01:06:57;;;;;;;6.17;5.17;;;21.20;70.30;;;;;;5011133;28;20274;-62
2022/06/24 01:09:22;;;;;;;7.87;4.30;;;21.20;70.20;;;;;;5024051;28;20307;-62
2022/06/24 01:11:48;;;;;;;5.75;4.25;;;21.20;71.60;;;;;;5012371;28;20187;-62
2022/06/24 01:14:13;;;;;;;15.60;10.87;;;21.20;70.40;;;;;;5023956;28;20198;-62
2022/06/24 01:16:39;;;;;;;7.00;5.22;;;21.20;70.60;;;;;;5017679;28;20245;-62
2022/06/24 01:19:10;;;;;;;8.52;5.40;;;21.10;70.60;;;;;;5014778;28;20192;-61
2022/06/24 01:21:40;;;;;;;10.38;5.50;;;21.10;71.50;;;;;;5016318;28;20198;-61
2022/06/24 01:24:11;;;;;;;9.63;5.25;;;21.10;71.10;;;;;;5023897;28;20207;-62
2022/06/24 01:26:38;;;;;;;8.77;5.50;;;21.10;73.40;;;;;;5015783;28;20218;-62
2022/06/24 01:29:04;;;;;;;6.93;4.40;;;21.00;73.30;;;;;;5025289;28;20533;-62
2022/06/24 01:31:30;;;;;;;8.35;5.00;;;21.00;73.50;;;;;;5012871;28;20269;-62
2022/06/24 01:33:56;;;;;;;7.03;4.68;;;20.90;72.30;;;;;;5025676;28;20249;-62
2022/06/24 01:36:22;;;;;;;6.00;4.53;;;20.90;73.40;;;;;;5009232;28;20207;-63
2022/06/24 01:38:47;;;;;;;7.38;5.45;;;20.90;74.10;;;;;;5025357;28;20203;-63
2022/06/24 01:41:13;;;;;;;6.60;4.70;;;20.90;73.40;;;;;;5006678;28;20674;-63
2022/06/24 01:43:38;;;;;;;7.23;4.83;;;20.80;75.10;;;;;;5024751;28;20203;-63
2022/06/24 01:46:04;;;;;;;7.67;5.77;;;20.80;74.30;;;;;;5023812;28;20215;-63
2022/06/24 01:48:30;;;;;;;6.73;4.87;;;20.80;74.50;;;;;;5025266;28;20200;-63
2022/06/24 01:50:55;;;;;;;4.93;4.47;;;20.80;75.40;;;;;;5009294;28;21095;-63
2022/06/24 01:53:21;;;;;;;8.97;5.10;;;20.80;74.10;;;;;;5025437;28;20219;-63
2022/06/24 01:55:46;;;;;;;7.00;5.40;;;20.70;74.90;;;;;;5007467;28;20231;-64
2022/06/24 01:58:12;;;;;;;6.40;5.22;;;20.70;74.60;;;;;;5025412;28;20200;-64
2022/06/24 02:00:38;;;;;;;9.95;6.30;;;20.70;76.00;;;;;;5013717;28;20238;-63
2022/06/24 02:03:07;;;;;;;5.33;4.83;;;20.70;75.50;;;;;;5025072;28;20749;-63
2022/06/24 02:05:32;;;;;;;6.22;4.60;;;20.70;77.30;;;;;;5017998;28;20224;-64
2022/06/24 02:07:58;;;;;;;7.23;5.53;;;20.70;75.60;;;;;;5024307;28;20202;-63
2022/06/24 02:13:28;;;;;;;5.40;4.90;;;20.60;76.30;;;;;;5025317;28;20275;-62
2022/06/24 02:15:56;;;;;;;5.57;4.40;;;20.60;77.70;;;;;;5001370;28;20207;-61
2022/06/24 02:18:22;;;;;;;6.20;4.30;;;20.60;78.70;;;;;;5021933;28;20195;-63
2022/06/24 02:20:49;;;;;;;6.13;5.00;;;20.50;76.80;;;;;;5010677;28;20313;-63
2022/06/24 02:23:15;;;;;;;7.27;4.77;;;20.50;78.80;;;;;;5024743;28;20207;-63
2022/06/24 02:25:41;;;;;;;5.83;4.63;;;20.50;79.40;;;;;;5012103;28;20212;-62
2022/06/24 02:28:06;;;;;;;6.97;5.10;;;20.50;78.60;;;;;;5024712;28;20194;-62
2022/06/24 02:30:32;;;;;;;5.63;4.37;;;20.40;79.80;;;;;;5022972;28;20273;-62
2022/06/24 02:32:57;;;;;;;6.60;4.77;;;20.40;79.40;;;;;;5019918;28;20220;-62
2022/06/24 02:35:23;;;;;;;5.50;4.97;;;20.40;79.90;;;;;;5023228;28;20797;-62
2022/06/24 02:37:49;;;;;;;6.27;4.93;;;20.40;80.70;;;;;;5025407;28;20459;-62
2022/06/24 02:42:59;;;;;;;7.80;4.70;;;20.30;80.40;;;;;;5017597;28;20247;-62
2022/06/24 02:45:24;;;;;;;7.77;4.57;;;20.30;80.20;;;;;;5016914;28;20484;-63
2022/06/24 02:47:50;;;;;;;12.83;6.13;;;20.30;81.60;;;;;;5019992;28;20204;-62
2022/06/24 02:50:15;;;;;;;5.57;4.63;;;20.30;80.40;;;;;;5015021;28;20350;-62
2022/06/24 02:52:41;;;;;;;5.70;5.10;;;20.30;82.40;;;;;;5017376;28;20185;-62
2022/06/24 02:55:07;;;;;;;7.83;5.60;;;20.30;82.40;;;;;;5016151;28;20224;-62
2022/06/24 02:57:32;;;;;;;5.03;4.53;;;20.30;81.80;;;;;;5021370;28;20282;-62
2022/06/24 02:59:58;;;;;;;6.07;5.47;;;20.30;82.00;;;;;;5022570;28;20358;-63
2022/06/24 03:02:23;;;;;;;5.90;5.13;;;20.20;82.60;;;;;;5009488;28;20270;-62
2022/06/24 03:04:49;;;;;;;5.03;4.60;;;20.20;83.60;;;;;;5023358;28;20583;-62
2022/06/24 03:07:14;;;;;;;4.80;4.40;;;20.20;83.20;;;;;;5014824;28;20191;-62
2022/06/24 03:09:40;;;;;;;9.37;8.37;;;20.20;83.60;;;;;;5024589;28;20340;-62
2022/06/24 03:12:06;;;;;;;5.63;4.50;;;20.20;83.20;;;;;;5019161;28;20262;-61
2022/06/24 03:14:31;;;;;;;10.83;8.93;;;20.20;83.50;;;;;;5024870;28;20206;-64
2022/06/24 03:16:56;;;;;;;5.93;4.23;;;20.20;83.00;;;;;;5027749;28;20196;-63
2022/06/24 03:19:22;;;;;;;5.43;4.93;;;20.20;84.00;;;;;;5027834;28;20203;-63
2022/06/24 03:21:47;;;;;;;9.07;6.57;;;20.20;84.30;;;;;;5013154;28;20211;-63
2022/06/24 03:24:13;;;;;;;6.57;4.73;;;20.20;84.10;;;;;;5027545;28;20669;-63
2022/06/24 03:26:39;;;;;;;5.70;5.20;;;20.20;84.80;;;;;;5015106;28;20682;-64
2022/06/24 03:29:04;;;;;;;9.00;6.17;;;20.20;86.00;;;;;;5027702;28;20195;-64
2022/06/24 03:31:30;;;;;;;7.70;5.17;;;20.20;86.40;;;;;;5011245;28;20568;-63
2022/06/24 03:33:55;;;;;;;6.20;5.07;;;20.20;85.50;;;;;;5028027;28;20195;-63
2022/06/24 03:36:22;;;;;;;5.43;4.53;;;20.20;85.80;;;;;;5011287;28;20698;-63
2022/06/24 03:38:47;;;;;;;6.13;4.83;;;20.20;87.70;;;;;;5027544;28;20207;-63
2022/06/24 03:41:13;;;;;;;5.70;4.67;;;20.20;87.30;;;;;;5012131;28;20215;-63
2022/06/24 03:43:39;;;;;;;5.90;5.23;;;20.20;87.10;;;;;;5023568;28;20196;-63
2022/06/24 03:46:04;;;;;;;5.93;5.23;;;20.20;87.70;;;;;;5012754;28;20287;-63
2022/06/24 03:48:30;;;;;;;6.40;5.33;;;20.20;87.90;;;;;;5021201;28;20365;-63
2022/06/24 03:50:56;;;;;;;7.80;5.93;;;20.20;87.60;;;;;;5015125;28;20215;-62
2022/06/24 03:53:22;;;;;;;5.70;5.13;;;20.20;87.80;;;;;;5027748;28;20688;-63
2022/06/24 03:55:52;;;;;;;7.80;5.53;;;20.20;86.10;;;;;;5015743;28;20235;-63
2022/06/24 03:58:18;;;;;;;5.07;4.57;;;20.20;86.80;;;;;;5027265;28;20206;-63
2022/06/24 04:00:44;;;;;;;7.53;5.87;;;20.20;86.90;;;;;;5016023;28;20334;-63
2022/06/24 04:03:10;;;;;;;6.30;5.17;;;20.20;86.70;;;;;;5023908;28;20689;-64
2022/06/24 04:05:35;;;;;;;5.17;4.67;;;20.30;88.20;;;;;;5024346;28;20211;-63
2022/06/24 04:08:01;;;;;;;6.93;4.90;;;20.20;87.70;;;;;;5025354;28;20287;-62
2022/06/24 04:10:26;;;;;;;5.53;5.03;;;20.30;87.40;;;;;;5024347;28;20265;-62
2022/06/24 04:12:52;;;;;;;5.40;4.87;;;20.30;88.00;;;;;;5014792;28;20547;-62
2022/06/24 04:15:19;;;;;;;7.43;5.47;;;20.30;87.20;;;;;;5025155;28;20207;-62
2022/06/24 04:17:46;;;;;;;5.70;5.10;;;20.30;88.00;;;;;;5026626;28;20609;-62
2022/06/24 04:20:13;;;;;;;6.20;5.33;;;20.30;88.70;;;;;;5020721;28;20201;-62
2022/06/24 04:22:39;;;;;;;5.23;4.73;;;20.40;88.60;;;;;;5015422;28;20216;-63
2022/06/24 04:25:05;;;;;;;6.43;4.77;;;20.30;88.30;;;;;;5022719;28;20212;-63
2022/06/24 04:27:31;;;;;;;6.63;4.57;;;20.40;89.50;;;;;;5017261;28;20188;-62
2022/06/24 04:30:08;;;;;;;10.90;8.70;;;20.40;88.70;;;;;;5020903;28;20193;-62
2022/06/24 04:32:33;;;;;;;6.33;5.67;;;20.40;87.90;;;;;;5016631;28;20191;-63
2022/06/24 04:34:59;;;;;;;9.63;8.63;;;20.50;86.70;;;;;;5022021;28;20199;-63
2022/06/24 04:37:24;;;;;;;9.07;6.17;;;20.50;87.30;;;;;;5019796;28;20689;-62
2022/06/24 04:39:50;;;;;;;11.97;10.53;;;20.60;87.50;;;;;;5023922;28;20200;-63
2022/06/24 04:42:16;;;;;;;6.13;5.20;;;20.60;87.70;;;;;;5014520;28;20547;-63
2022/06/24 04:44:41;;;;;;;5.93;4.80;;;20.60;87.60;;;;;;5023325;28;20192;-61
2022/06/24 04:47:07;;;;;;;10.27;7.13;;;20.60;87.40;;;;;;5024143;28;20261;-62
2022/06/24 04:49:33;;;;;;;5.17;4.50;;;20.70;87.80;;;;;;5025871;28;20294;-62
2022/06/24 04:51:58;;;;;;;7.00;5.00;;;20.70;86.70;;;;;;5012216;28;20231;-61
2022/06/24 04:54:23;;;;;;;5.60;5.00;;;20.80;86.50;;;;;;5025670;28;20689;-61
2022/06/24 04:56:49;;;;;;;5.50;5.00;;;20.90;85.90;;;;;;5012224;28;20532;-62
2022/06/24 04:59:15;;;;;;;6.40;4.23;;;20.90;86.40;;;;;;5025814;28;20201;-59
2022/06/24 05:01:40;;;;;;;5.17;4.70;;;21.00;86.00;;;;;;5017144;28;20204;-61
2022/06/24 05:04:06;;;;;;;7.07;4.57;;;21.00;85.70;;;;;;5025277;28;20195;-61
2022/06/24 05:06:31;;;;;;;6.07;4.23;;;21.10;85.00;;;;;;5012148;28;20212;-61
2022/06/24 05:08:57;;;;;;;7.38;4.68;;;21.20;84.70;;;;;;5026130;28;20198;-61
2022/06/24 05:11:23;;;;;;;7.47;3.83;;;21.20;84.40;;;;;;5012524;28;20204;-61
2022/06/24 05:13:48;;;;;;;7.70;4.47;;;21.30;84.90;;;;;;5025524;28;20490;-61
2022/06/24 05:16:14;;;;;;;5.78;3.90;;;21.40;83.70;;;;;;5015777;28;20264;-61
2022/06/24 05:18:40;;;;;;;5.82;4.68;;;21.40;84.80;;;;;;5019084;28;20188;-61
2022/06/24 05:21:05;;;;;;;9.02;4.53;;;21.50;82.70;;;;;;5023168;28;20206;-62
2022/06/24 05:23:31;;;;;;;4.90;4.40;;;21.60;82.50;;;;;;5023707;28;20954;-62
2022/06/24 05:25:56;;;;;;;5.80;4.73;;;21.70;83.60;;;;;;5022568;28;20211;-61
2022/06/24 05:28:22;;;;;;;6.07;4.53;;;21.80;83.70;;;;;;5023994;28;20227;-60
2022/06/24 05:30:53;;;;;;;4.75;4.25;;;21.80;82.60;;;;;;5021071;28;20208;-60
2022/06/24 05:33:18;;;;;;;5.38;4.85;;;21.90;83.10;;;;;;5014203;28;20403;-60
2022/06/24 05:35:44;;;;;;;6.77;5.17;;;22.00;83.90;;;;;;5023538;28;20884;-60
2022/06/24 05:38:09;;;;;;;4.83;4.03;;;22.10;81.20;;;;;;5010797;28;20211;-61
2022/06/24 05:40:35;;;;;;;6.47;5.15;;;22.10;80.70;;;;;;5023009;28;20191;-61
2022/06/24 05:43:00;;;;;;;5.22;4.28;;;22.20;80.50;;;;;;5011801;28;20634;-60
2022/06/24 05:45:26;;;;;;;5.85;4.65;;;22.30;80.30;;;;;;5017454;28;20615;-61
2022/06/24 05:47:52;;;;;;;5.00;4.03;;;22.40;79.30;;;;;;5011900;28;20194;-61
2022/06/24 05:50:17;;;;;;;12.25;9.40;;;22.50;79.40;;;;;;5023269;28;20514;-60
2022/06/24 05:55:27;;;;;;;4.65;4.22;;;22.60;78.40;;;;;;5007253;28;20658;-61
2022/06/24 05:57:53;;;;;;;7.93;4.70;;;22.70;78.30;;;;;;5024238;28;20278;-61
2022/06/24 06:00:18;;;;;;;12.43;8.10;;;22.80;77.70;;;;;;5023413;28;20290;-61
2022/06/24 06:02:44;;;;;;;6.57;4.43;;;22.90;78.20;;;;;;5013788;28;20271;-61
2022/06/24 06:05:09;;;;;;;14.85;7.50;;;22.90;78.00;;;;;;5022168;28;20308;-60
2022/06/24 06:07:35;;;;;;;5.50;3.45;;;23.00;76.30;;;;;;5025774;28;20183;-60
2022/06/24 06:10:01;;;;;;;6.00;4.85;;;23.10;77.40;;;;;;5025211;28;20282;-61
2022/06/24 06:12:26;;;;;;;6.50;3.75;;;23.20;77.60;;;;;;5004004;28;20568;-61
2022/06/24 06:14:52;;;;;;;5.93;4.20;;;23.30;75.40;;;;;;5024363;28;20196;-61
2022/06/24 06:17:17;;;;;;;5.18;4.50;;;23.40;75.60;;;;;;5012851;28;20199;-60
2022/06/24 06:19:42;;;;;;;10.77;4.28;;;23.40;75.50;;;;;;5025012;28;20191;-60
2022/06/24 06:22:08;;;;;;;4.85;4.32;;;23.50;75.00;;;;;;5020874;28;20656;-60
2022/06/24 06:24:33;;;;;;;6.28;4.43;;;23.60;75.20;;;;;;5024443;28;20527;-61
2022/06/24 06:26:59;;;;;;;4.70;4.05;;;23.70;74.40;;;;;;5014854;28;20215;-61
2022/06/24 06:29:25;;;;;;;4.40;3.92;;;23.70;74.40;;;;;;5021240;28;20334;-63
2022/06/24 06:31:51;;;;;;;4.35;3.95;;;23.80;74.50;;;;;;5013388;28;20203;-61
2022/06/24 06:34:18;;;;;;;7.05;3.95;;;23.90;73.50;;;;;;5024901;28;20278;-61
2022/06/24 06:36:44;;;;;;;5.25;4.25;;;23.90;73.30;;;;;;5022920;28;20314;-61
2022/06/24 06:39:10;;;;;;;7.18;4.00;;;24.00;73.00;;;;;;5027727;28;20274;-59
2022/06/24 06:41:35;;;;;;;4.28;3.75;;;24.00;71.80;;;;;;5017202;28;20210;-60
2022/06/24 06:44:01;;;;;;;6.45;4.68;;;24.10;72.60;;;;;;5026025;28;20258;-59
2022/06/24 06:46:26;;;;;;;13.07;5.07;;;24.20;71.90;;;;;;5015511;28;20228;-64
2022/06/24 06:48:52;;;;;;;4.20;3.35;;;24.30;71.90;;;;;;5027876;28;20250;-64
2022/06/24 06:51:17;;;;;;;4.97;4.05;;;24.30;71.60;;;;;;5022370;28;20580;-64
2022/06/24 06:53:43;;;;;;;6.45;5.45;;;24.40;70.70;;;;;;5027810;28;20198;-64
2022/06/24 06:56:08;;;;;;;5.43;4.60;;;24.40;71.20;;;;;;5018554;28;20239;-65
2022/06/24 06:58:34;;;;;;;5.90;3.80;;;24.50;70.20;;;;;;5027281;28;20191;-64
2022/06/24 07:00:59;;;;;;;12.43;4.25;;;24.50;70.10;;;;;;5019762;28;20197;-64
2022/06/24 07:03:25;;;;;;;5.88;3.80;;;24.60;69.30;;;;;;5017866;28;20194;-64
2022/06/24 07:05:50;;;;;;;5.53;4.68;;;24.70;69.20;;;;;;5007885;28;20353;-63
2022/06/24 07:08:16;;;;;;;7.32;3.47;;;24.70;69.20;;;;;;5017879;28;20191;-63
2022/06/24 07:10:43;;;;;;;5.00;4.28;;;24.80;69.30;;;;;;5022554;28;20576;-65
2022/06/24 07:13:09;;;;;;;5.25;4.30;;;24.90;70.00;;;;;;5020725;28;20394;-63
2022/06/24 07:15:35;;;;;;;11.93;7.28;;;25.00;68.10;;;;;;5025835;28;20215;-65
2022/06/24 07:18:01;;;;;;;6.93;3.97;;;25.10;67.80;;;;;;5016770;28;20613;-64
2022/06/24 07:20:27;;;;;;;8.65;7.05;;;25.20;67.60;;;;;;5016437;28;20317;-73
2022/06/24 07:22:52;;;;;;;9.88;5.40;;;25.20;66.60;;;;;;5015676;28;20199;-76
2022/06/24 07:25:18;;;;;;;811.40;752.90;;;25.30;66.00;;;;;;5027704;28;20725;-82
2022/06/24 07:27:43;;;;;;;676.83;631.38;;;25.50;78.90;;;;;;5014342;28;20669;-65
2022/06/24 07:30:10;;;;;;;15.00;7.05;;;25.60;77.20;;;;;;5027354;28;20245;-65
2022/06/24 07:32:36;;;;;;;24.35;10.20;;;25.80;78.40;;;;;;5009429;28;20665;-66
2022/06/24 07:35:01;;;;;;;21.90;12.70;;;26.00;76.90;;;;;;5027621;28;20213;-65
2022/06/24 07:37:27;;;;;;;16.13;7.57;;;26.10;77.30;;;;;;5008936;28;20210;-65
2022/06/24 07:39:52;;;;;;;12.73;6.03;;;26.20;76.70;;;;;;5026619;28;20796;-65
2022/06/24 07:42:20;;;;;;;15.27;6.55;;;26.20;63.30;;;;;;5010056;28;20201;-66
2022/06/24 07:44:45;;;;;;;10.55;5.80;;;26.30;63.90;;;;;;5026367;28;20199;-65
2022/06/24 07:47:11;;;;;;;9.55;6.57;;;26.30;64.40;;;;;;5010371;28;20196;-64
2022/06/24 07:49:37;;;;;;;9.32;5.68;;;26.30;64.60;;;;;;5023818;28;20214;-67
2022/06/24 07:52:03;;;;;;;19.02;6.57;;;26.30;68.60;;;;;;5013532;28;20278;-66
2022/06/24 07:54:28;;;;;;;12.80;5.93;;;26.30;66.70;;;;;;5026507;28;20223;-64
2022/06/24 07:56:57;;;;;;;17.73;7.47;;;26.30;66.20;;;;;;5005858;28;20784;-64
2022/06/24 07:59:24;;;;;;;9.25;5.18;;;26.30;63.40;;;;;;5008506;28;20205;-63
2022/06/24 08:01:50;;;;;;;7.70;4.75;;;26.30;66.00;;;;;;5012788;28;20697;-63
2022/06/24 08:04:15;;;;;;;11.43;5.55;;;26.40;62.70;;;;;;5018301;28;20215;-65
2022/06/24 08:06:45;;;;;;;11.95;5.40;;;26.50;63.30;;;;;;5014173;28;20219;-63
2022/06/24 08:09:11;;;;;;;6.97;5.00;;;26.50;64.60;;;;;;5023354;28;20199;-64
2022/06/24 08:11:36;;;;;;;12.73;5.80;;;26.60;62.30;;;;;;5014591;28;20292;-68
2022/06/24 08:14:02;;;;;;;8.27;5.47;;;26.60;62.50;;;;;;5023919;28;20191;-65
2022/06/24 08:16:28;;;;;;;12.70;5.95;;;26.60;64.10;;;;;;5016067;28;20234;-64
2022/06/24 08:18:54;;;;;;;11.82;6.20;;;26.70;62.60;;;;;;5025387;28;20229;-66
2022/06/24 08:21:20;;;;;;;6.63;4.95;;;26.80;62.90;;;;;;5017733;28;20560;-65
2022/06/24 08:23:46;;;;;;;11.93;6.43;;;26.90;61.40;;;;;;5014890;28;20230;-64
2022/06/24 08:26:11;;;;;;;14.45;5.93;;;26.90;62.20;;;;;;5018613;28;20212;-64
2022/06/24 08:28:37;;;;;;;9.27;5.03;;;27.00;61.60;;;;;;5021184;28;20627;-65
2022/06/24 08:31:02;;;;;;;5.85;4.68;;;27.10;61.10;;;;;;5020020;28;20515;-65
2022/06/24 08:33:28;;;;;;;6.97;4.53;;;27.10;62.30;;;;;;5007694;28;20234;-63
2022/06/24 08:35:54;;;;;;;6.03;4.45;;;27.10;62.90;;;;;;5008575;28;20760;-65
2022/06/24 08:38:19;;;;;;;7.30;4.65;;;27.30;61.80;;;;;;5007302;28;20647;-62
2022/06/24 08:40:50;;;;;;;12.32;9.27;;;27.30;59.10;;;;;;5004800;28;20188;-66
2022/06/24 08:43:16;;;;;;;4.93;4.10;;;27.40;61.60;;;;;;5002184;28;20374;-64
2022/06/24 08:45:42;;;;;;;12.27;8.32;;;27.40;59.60;;;;;;5007041;28;20290;-65
2022/06/24 08:48:08;;;;;;;5.57;4.82;;;27.50;60.30;;;;;;5006034;28;20561;-65
2022/06/24 08:50:34;;;;;;;5.72;4.47;;;27.60;59.60;;;;;;5023669;28;20211;-68
2022/06/24 08:53:05;;;;;;;4.95;3.80;;;27.60;60.30;;;;;;5024020;28;20191;-66
2022/06/24 08:55:40;;;;;;;5.15;4.32;;;27.60;60.70;;;;;;5018752;28;20301;-66
2022/06/24 08:58:10;;;;;;;8.57;4.15;;;27.60;60.70;;;;;;5009390;28;20303;-63
2022/06/24 09:00:36;;;;;;;5.90;4.25;;;27.70;59.60;;;;;;5022417;28;20286;-63
2022/06/24 09:03:03;;;;;;;5.18;4.35;;;27.70;59.60;;;;;;5024025;28;20200;-63
2022/06/24 09:05:29;;;;;;;5.63;4.03;;;27.80;59.00;;;;;;5024411;28;20222;-64
2022/06/24 09:08:11;;;;;;;5.32;4.40;;;27.90;57.70;;;;;;5017031;28;20200;-64
2022/06/24 09:10:39;;;;;;;6.13;4.68;;;28.00;58.00;;;;;;5023729;28;20187;-63
2022/06/24 09:13:05;;;;;;;3.67;3.10;;;28.00;59.10;;;;;;5006598;28;20262;-67
2022/06/24 09:15:32;;;;;;;6.20;3.67;;;28.10;57.50;;;;;;5019160;28;20195;-63
2022/06/24 09:17:59;;;;;;;5.65;4.47;;;28.10;58.50;;;;;;5006969;28;20267;-64
2022/06/24 09:20:29;;;;;;;6.93;4.38;;;28.10;58.20;;;;;;5008946;28;20199;-63
2022/06/24 09:23:09;;;;;;;3.95;3.65;;;28.10;58.70;;;;;;5002727;28;20433;-66
2022/06/24 09:25:42;;;;;;;10.23;5.38;;;28.20;56.90;;;;;;5007784;28;20426;-63
2022/06/24 09:28:08;;;;;;;4.38;3.70;;;28.20;58.00;;;;;;5004541;28;20192;-63
2022/06/24 09:30:35;;;;;;;4.13;3.83;;;28.30;57.20;;;;;;5006798;28;20722;-64
2022/06/24 09:33:01;;;;;;;4.72;3.75;;;28.40;55.30;;;;;;5005797;28;20282;-65
2022/06/24 09:35:26;;;;;;;7.03;4.55;;;28.40;56.80;;;;;;5008135;28;20282;-64
2022/06/24 09:37:52;;;;;;;4.38;3.97;;;28.50;57.10;;;;;;5008407;28;20210;-65
2022/06/24 09:40:22;;;;;;;11.00;3.95;;;28.60;56.50;;;;;;5008165;28;20293;-64
2022/06/24 09:43:03;;;;;;;4.88;4.03;;;28.60;57.70;;;;;;5003770;28;20682;-63
2022/06/24 09:45:52;;;;;;;4.80;4.18;;;28.50;55.90;;;;;;5007030;28;20570;-63
2022/06/24 09:48:32;;;;;;;5.72;3.83;;;28.60;55.30;;;;;;5004499;28;20208;-66
2022/06/24 09:51:07;;;;;;;5.47;4.80;;;28.70;55.30;;;;;;5004932;28;20179;-66
2022/06/24 09:53:39;;;;;;;7.75;3.83;;;28.70;56.20;;;;;;5011417;28;20665;-67
2022/06/24 09:56:07;;;;;;;9.43;5.63;;;28.80;55.30;;;;;;4986267;28;20244;-67
2022/06/24 09:58:34;;;;;;;4.43;3.58;;;28.70;57.30;;;;;;5015494;28;20195;-69
2022/06/24 10:01:00;;;;;;;8.70;6.90;;;28.80;57.20;;;;;;5024325;28;20187;-74
2022/06/24 10:03:27;;;;;;;5.32;3.45;;;28.80;56.70;;;;;;5012643;28;20191;-70
2022/06/24 10:05:56;;;;;;;5.22;4.45;;;28.80;55.80;;;;;;5020067;28;20200;-66
2022/06/24 10:08:23;;;;;;;3.92;3.63;;;28.80;54.60;;;;;;5007582;28;20184;-67
2022/06/24 10:10:53;;;;;;;6.82;3.25;;;28.80;55.70;;;;;;5024941;28;20198;-67
2022/06/24 10:13:31;;;;;;;5.32;3.78;;;28.90;53.80;;;;;;5006135;28;20202;-69
2022/06/24 10:16:02;;;;;;;6.28;4.07;;;29.00;54.20;;;;;;5025410;28;20282;-67
2022/06/24 10:18:32;;;;;;;3.20;3.00;;;29.00;53.10;;;;;;5029443;28;20228;-65
2022/06/24 10:21:00;;;;;;;4.63;4.00;;;29.10;52.40;;;;;;5026768;28;20264;-64
2022/06/24 10:23:41;;;;;;;3.78;3.15;;;29.10;49.40;;;;;;5014292;28;20669;-65
2022/06/24 10:26:17;;;;;;;5.07;4.57;;;29.20;48.80;;;;;;5025963;28;20214;-65
2022/06/24 10:29:05;;;;;;;4.32;3.75;;;29.20;48.90;;;;;;5018013;28;20187;-65
2022/06/24 10:34:10;;;;;;;4.32;3.90;;;29.40;52.00;;;;;;5018259;28;20210;-64
2022/06/24 10:36:35;;;;;;;3.53;3.22;;;29.40;51.90;;;;;;5021063;28;20196;-64
2022/06/24 10:39:17;;;;;;;3.95;3.65;;;29.50;51.80;;;;;;5008896;28;20184;-64
2022/06/24 10:41:43;;;;;;;4.93;3.78;;;29.60;51.70;;;;;;5018052;28;20204;-64
2022/06/24 10:44:26;;;;;;;4.90;3.15;;;29.60;52.20;;;;;;5013748;28;20270;-64
2022/06/24 10:47:04;;;;;;;3.47;3.28;;;29.60;52.70;;;;;;5019053;28;20216;-64
2022/06/24 10:49:55;;;;;;;4.43;3.08;;;29.60;53.00;;;;;;5027255;28;20206;-65
2022/06/24 10:52:37;;;;;;;4.63;3.80;;;29.70;51.00;;;;;;4997973;28;20323;-68
2022/06/24 10:55:18;;;;;;;3.95;3.55;;;29.70;50.60;;;;;;5027242;28;20215;-63
2022/06/24 10:57:57;;;;;;;4.50;3.60;;;29.70;51.70;;;;;;5015707;28;20256;-63
2022/06/24 11:00:25;;;;;;;3.70;2.90;;;29.80;52.30;;;;;;5022595;28;20286;-63
2022/06/24 11:02:57;;;;;;;4.20;3.90;;;29.80;51.30;;;;;;5008156;28;20200;-68
2022/06/24 11:05:26;;;;;;;3.55;3.25;;;30.00;51.60;;;;;;5012669;28;20222;-78
2022/06/24 11:07:51;;;;;;;4.07;3.55;;;30.10;50.00;;;;;;5012235;28;20200;-72
2022/06/24 11:10:19;;;;;;;5.22;3.08;;;30.20;50.10;;;;;;5011081;28;20189;-75
2022/06/24 11:12:49;;;;;;;7.82;3.55;;;30.50;49.30;;;;;;5007951;28;20616;-78
2022/06/24 11:15:14;;;;;;;4.88;4.00;;;30.80;48.50;;;;;;5011114;28;20654;-72
2022/06/24 11:17:43;;;;;;;4.40;3.45;;;31.20;48.20;;;;;;5010152;28;20211;-71
2022/06/24 11:20:11;;;;;;;5.15;3.55;;;31.60;47.60;;;;;;5011087;28;20198;-73
2022/06/24 11:22:46;;;;;;;3.78;3.47;;;31.80;47.50;;;;;;5010087;28;20211;-72
2022/06/24 11:25:14;;;;;;;5.03;3.47;;;32.00;47.00;;;;;;5009805;28;20216;-73
2022/06/24 11:27:40;;;;;;;2.97;2.78;;;32.40;46.40;;;;;;5013866;28;20714;-75
2022/06/24 11:30:08;;;;;;;5.00;3.17;;;32.80;44.80;;;;;;5008213;28;20250;-75
2022/06/24 11:32:54;;;;;;;3.25;2.92;;;33.10;44.30;;;;;;5005504;28;20692;-76
2022/06/24 11:35:20;;;;;;;5.10;3.30;;;33.20;43.50;;;;;;5011017;28;20228;-77
2022/06/24 11:37:47;;;;;;;4.18;3.33;;;33.60;42.70;;;;;;5007664;28;20696;-78
2022/06/24 11:40:21;;;;;;;5.57;4.05;;;33.70;40.60;;;;;;5011065;28;20291;-76
2022/06/24 11:42:46;;;;;;;3.20;3.00;;;34.10;39.30;;;;;;5006077;28;20228;-75
2022/06/24 11:45:12;;;;;;;5.10;3.17;;;34.20;41.10;;;;;;5009292;28;20216;-75
2022/06/24 11:47:38;;;;;;;4.18;3.70;;;34.30;41.20;;;;;;5009316;28;20203;-77
2022/06/24 11:50:04;;;;;;;3.38;3.17;;;34.60;40.60;;;;;;5007913;28;20270;-75
2022/06/24 11:52:43;;;;;;;5.38;2.80;;;34.60;40.30;;;;;;5006673;28;20212;-75
2022/06/24 11:55:29;;;;;;;6.95;3.78;;;34.40;41.10;;;;;;5005926;28;20973;-74
2022/06/24 11:57:57;;;;;;;4.65;3.50;;;34.50;40.50;;;;;;5006897;28;20204;-77
2022/06/24 12:00:24;;;;;;;4.53;2.92;;;34.60;38.30;;;;;;5009277;28;20677;-77
2022/06/24 12:02:51;;;;;;;5.32;3.28;;;34.60;38.50;;;;;;5005717;28;20204;-74
2022/06/24 12:05:18;;;;;;;3.50;2.67;;;34.70;38.10;;;;;;5007821;28;20219;-76
2022/06/24 12:07:43;;;;;;;3.20;3.00;;;34.90;35.90;;;;;;5013744;28;20215;-74
2022/06/24 12:10:09;;;;;;;6.68;2.97;;;35.00;37.70;;;;;;5016798;28;20187;-72
2022/06/24 12:12:36;;;;;;;2.90;2.70;;;35.30;37.60;;;;;;5015121;28;20195;-74
2022/06/24 12:15:02;;;;;;;4.20;3.25;;;35.50;37.40;;;;;;5016866;28;20245;-74
2022/06/24 12:17:28;;;;;;;4.03;3.22;;;35.50;37.30;;;;;;5010687;28;20200;-81
2022/06/24 12:19:59;;;;;;;5.15;4.43;;;35.70;36.70;;;;;;5008986;28;20200;-79
2022/06/24 12:22:24;;;;;;;3.22;2.88;;;35.70;36.20;;;;;;5005782;28;20204;-79
2022/06/24 12:25:00;;;;;;;7.13;5.40;;;35.70;36.90;;;;;;5006196;28;20573;-80
2022/06/24 12:27:37;;;;;;;3.17;2.88;;;36.00;34.90;;;;;;5012494;28;20203;-79
2022/06/24 12:30:06;;;;;;;4.50;2.88;;;36.20;36.20;;;;;;5017204;28;20196;-80
2022/06/24 12:32:52;;;;;;;3.13;2.92;;;36.40;35.40;;;;;;5022505;28;20199;-80
2022/06/24 12:35:31;;;;;;;2.30;2.20;;;36.60;35.90;;;;;;5010968;28;20253;-81
2022/06/24 12:37:57;;;;;;;5.03;3.17;;;36.80;34.70;;;;;;5011618;28;20291;-80
2022/06/24 12:40:23;;;;;;;2.95;2.65;;;37.00;34.80;;;;;;5025181;28;20302;-80
2022/06/24 12:43:04;;;;;;;3.30;3.00;;;37.00;35.00;;;;;;5012407;28;20683;-81
2022/06/24 12:45:35;;;;;;;3.85;3.55;;;37.30;33.60;;;;;;4999414;28;20466;-76
2022/06/24 12:50:59;;;;;;;3.10;2.90;;;37.60;33.30;;;;;;5008086;28;20204;-75
2022/06/24 12:53:25;;;;;;;2.55;2.35;;;37.80;33.00;;;;;;5002165;28;20564;-79
2022/06/24 12:55:51;;;;;;;4.20;3.30;;;38.20;32.50;;;;;;5025766;28;20239;-74
2022/06/24 12:58:17;;;;;;;2.55;2.20;;;38.00;32.60;;;;;;5012669;28;20228;-73
2022/06/24 13:00:42;;;;;;;4.57;4.18;;;37.70;31.60;;;;;;5022394;28;20294;-77
2022/06/24 13:03:08;;;;;;;8.70;2.90;;;37.80;31.80;;;;;;5009268;28;20204;-76